Crockett, Mississippi
Current Conditions -  °F | °C
As of 9:55 AM on Thursday 27 Nov 2014 (Local Time) from KUOX Reporting Station
Overcast Overcast  
Wind Chill: 31°   Ceiling: 2700
Heat Index: 37°   Visibility: 10mi
Dew Point: 27°   Wind: 9mph
Humidity: 65%   Direction: 350°N
Pressure: 30.5"   Gusts: NA
Location:  34.6336°N, 89.8203°W
Report Text: KUOX 271555Z AUTO 35008KT 10SM OVC027 03/M03 A3050 RMK AO2 PWINO PNO
Loading
Personal Weather Stations






























Interactive Weather Map New forecast layout! Learn more

10-Day Weather Forecast

Advertisements
Track Severe Weather on mobile